Time;durP1;ratioP1;P1;durP2;ratioP2;P2;SDS_P1;SDS_P2;PMS_P1;PMS_P2;Temp;Humidity;BMP_temperature;BMP_pressure;BME280_temperature;BME280_humidity;BME280_pressure;Samples;Min_cycle;Max_cycle;Signal;HPM_P1;HPM_P2
2022/11/15 00:00:27;;;;;;;;;;;;;;;;;;1043482;28;2423;-57
2022/11/15 00:01:14;;;;;;;;;;;;;;;;;;1039718;28;1742;-56
2022/11/15 00:01:44;;;;;;;;;;;;;;;;;;1039278;28;2411;-58
2022/11/15 00:02:15;;;;;;;;;;;;;;;;;;1044106;28;1812;-56
2022/11/15 00:02:45;;;;;;;;;;;;;;;;;;1043276;28;2256;-57
2022/11/15 00:03:16;;;;;;;;;;;;;;;;;;1042106;28;2476;-58
2022/11/15 00:03:50;;;;;;;;;;;;;;;;;;1045541;28;2438;-57
2022/11/15 00:04:20;;;;;;;;;;;;;;;;;;1043906;28;1921;-58
2022/11/15 00:04:50;;;;;;;;;;;;;;;;;;1042918;28;1536;-60
2022/11/15 00:05:21;;;;;;;;;;;;;;;;;;1045776;28;2542;-59
2022/11/15 00:05:51;;;;;;;;;;;;;;;;;;1044553;28;2379;-58
2022/11/15 00:06:22;;;;;;;;;;;;;;;;;;1046638;28;1756;-58
2022/11/15 00:06:52;;;;;;;;;;;;;;;;;;1045056;28;1942;-57
2022/11/15 00:07:22;;;;;;;;;;;;;;;;;;1044154;28;2226;-57
2022/11/15 00:07:52;;;;;;;;;;;;;;;;;;1045824;28;2698;-58
2022/11/15 00:08:40;;;;;;;;;;;;;;;;;;1046084;28;1771;-58
2022/11/15 00:09:17;;;;;;;;;;;;;;;;;;1037428;28;2106;-57
2022/11/15 00:09:47;;;;;;;;;;;;;;;;;;1036932;28;2943;-59
2022/11/15 00:10:17;;;;;;;;;;;;;;;;;;1035812;28;2758;-59
2022/11/15 00:10:58;;;;;;;;;;;;;;;;;;1036978;28;2167;-58
2022/11/15 00:11:29;;;;;;;;;;;;;;;;;;1036691;28;2291;-58
2022/11/15 00:11:59;;;;;;;;;;;;;;;;;;1037923;28;2303;-59
2022/11/15 00:12:30;;;;;;;;;;;;;;;;;;1037520;28;2494;-57
2022/11/15 00:13:03;;;;;;;;;;;;;;;;;;1038193;28;2237;-58
2022/11/15 00:13:34;;;;;;;;;;;;;;;;;;1036297;28;2292;-58
2022/11/15 00:14:04;;;;;;;;;;;;;;;;;;1039556;28;1766;-58
2022/11/15 00:14:34;;;;;;;;;;;;;;;;;;1038709;28;1823;-55
2022/11/15 00:15:05;;;;;;;;;;;;;;;;;;1037877;28;2261;-59
2022/11/15 00:15:38;;;;;;;;;;;;;;;;;;1037860;28;2404;-59
2022/11/15 00:16:10;;;;;;;;;;;;;;;;;;1038853;28;2533;-55
2022/11/15 00:16:40;;;;;;;;;;;;;;;;;;1036947;28;2706;-58
2022/11/15 00:17:10;;;;;;;;;;;;;;;;;;1038840;28;2478;-59
2022/11/15 00:17:40;;;;;;;;;;;;;;;;;;1037372;28;3119;-59
2022/11/15 00:18:12;;;;;;;;;;;;;;;;;;1036828;28;2245;-59
2022/11/15 00:18:42;;;;;;;;;;;;;;;;;;1038436;28;2169;-58
2022/11/15 00:19:13;;;;;;;;;;;;;;;;;;1039274;28;2111;-57
2022/11/15 00:19:43;;;;;;;;;;;;;;;;;;1038652;28;1801;-58
2022/11/15 00:20:13;;;;;;;;;;;;;;;;;;1037780;28;2353;-59
2022/11/15 00:20:44;;;;;;;;;;;;;;;;;;1035264;28;2319;-59
2022/11/15 00:21:15;;;;;;;;;;;;;;;;;;1037244;28;2647;-57
2022/11/15 00:21:45;;;;;;;;;;;;;;;;;;1038109;28;2031;-58
2022/11/15 00:22:15;;;;;;;;;;;;;;;;;;1037678;28;3005;-59
2022/11/15 00:22:46;;;;;;;;;;;;;;;;;;1033417;28;1861;-58
2022/11/15 00:23:16;;;;;;;;;;;;;;;;;;1033357;28;2383;-59
2022/11/15 00:23:46;;;;;;;;;;;;;;;;;;1033174;28;2349;-59
2022/11/15 00:24:16;;;;;;;;;;;;;;;;;;1035536;28;2778;-59
2022/11/15 00:24:47;;;;;;;;;;;;;;;;;;1038840;28;1738;-56
2022/11/15 00:25:17;;;;;;;;;;;;;;;;;;1039058;28;2329;-57
2022/11/15 00:25:54;;;;;;;;;;;;;;;;;;1036026;28;2553;-59
2022/11/15 00:26:24;;;;;;;;;;;;;;;;;;1038128;28;2525;-57
2022/11/15 00:26:54;;;;;;;;;;;;;;;;;;1039050;28;1723;-59
2022/11/15 00:27:25;;;;;;;;;;;;;;;;;;1037287;28;2440;-57
2022/11/15 00:27:59;;;;;;;;;;;;;;;;;;1038122;28;2931;-59
2022/11/15 00:28:29;;;;;;;;;;;;;;;;;;1035690;28;2940;-59
2022/11/15 00:28:59;;;;;;;;;;;;;;;;;;1038252;28;1924;-58
2022/11/15 00:29:29;;;;;;;;;;;;;;;;;;1037498;28;2199;-58
2022/11/15 00:30:00;;;;;;;;;;;;;;;;;;1036942;28;2550;-59
2022/11/15 00:30:30;;;;;;;;;;;;;;;;;;1037783;28;2715;-58
2022/11/15 00:31:02;;;;;;;;;;;;;;;;;;1037899;28;2173;-58
2022/11/15 00:31:32;;;;;;;;;;;;;;;;;;1038996;28;1660;-57
2022/11/15 00:32:02;;;;;;;;;;;;;;;;;;1038013;28;2376;-59
2022/11/15 00:32:32;;;;;;;;;;;;;;;;;;1037605;28;2720;-56
2022/11/15 00:33:03;;;;;;;;;;;;;;;;;;1035020;28;2427;-56
2022/11/15 00:33:34;;;;;;;;;;;;;;;;;;1036660;28;2465;-57
2022/11/15 00:34:04;;;;;;;;;;;;;;;;;;1037825;28;2186;-59
2022/11/15 00:34:34;;;;;;;;;;;;;;;;;;1035974;28;2641;-58
2022/11/15 00:35:05;;;;;;;;;;;;;;;;;;1037165;28;2975;-59
2022/11/15 00:35:35;;;;;;;;;;;;;;;;;;1038441;28;2827;-58
2022/11/15 00:36:11;;;;;;;;;;;;;;;;;;1037262;28;2078;-56
2022/11/15 00:36:41;;;;;;;;;;;;;;;;;;1036158;28;2587;-56
2022/11/15 00:37:12;;;;;;;;;;;;;;;;;;1037865;28;2121;-58
2022/11/15 00:37:42;;;;;;;;;;;;;;;;;;1038660;28;2079;-59
2022/11/15 00:38:12;;;;;;;;;;;;;;;;;;1036776;28;2406;-58
2022/11/15 00:38:42;;;;;;;;;;;;;;;;;;1036698;28;2431;-59
2022/11/15 00:39:13;;;;;;;;;;;;;;;;;;1039418;28;2497;-57
2022/11/15 00:39:43;;;;;;;;;;;;;;;;;;1038449;28;2338;-54
2022/11/15 00:40:13;;;;;;;;;;;;;;;;;;1037412;28;2417;-57
2022/11/15 00:40:44;;;;;;;;;;;;;;;;;;1036547;28;2137;-58
2022/11/15 00:41:14;;;;;;;;;;;;;;;;;;1036600;28;1953;-59
2022/11/15 00:41:44;;;;;;;;;;;;;;;;;;1037509;28;1758;-57
2022/11/15 00:42:14;;;;;;;;;;;;;;;;;;1035568;28;2435;-58
2022/11/15 00:42:45;;;;;;;;;;;;;;;;;;1039141;28;1825;-56
2022/11/15 00:43:15;;;;;;;;;;;;;;;;;;1037638;28;2112;-57
2022/11/15 00:43:45;;;;;;;;;;;;;;;;;;1038774;28;1894;-58
2022/11/15 00:44:16;;;;;;;;;;;;;;;;;;1036983;28;2045;-58
2022/11/15 00:44:46;;;;;;;;;;;;;;;;;;1038136;28;1768;-57
2022/11/15 00:45:16;;;;;;;;;;;;;;;;;;1037441;28;2174;-59
2022/11/15 00:45:46;;;;;;;;;;;;;;;;;;1038459;28;1663;-59
2022/11/15 00:46:17;;;;;;;;;;;;;;;;;;1038314;28;1816;-56
2022/11/15 00:46:47;;;;;;;;;;;;;;;;;;1037516;28;2151;-59
2022/11/15 00:47:24;;;;;;;;;;;;;;;;;;1037453;28;2354;-55
2022/11/15 00:47:54;;;;;;;;;;;;;;;;;;1037952;28;2090;-59
2022/11/15 00:48:24;;;;;;;;;;;;;;;;;;1038464;28;2531;-58
2022/11/15 00:48:55;;;;;;;;;;;;;;;;;;1036296;28;2082;-58
2022/11/15 00:49:25;;;;;;;;;;;;;;;;;;1038753;28;1400;-57
2022/11/15 00:49:55;;;;;;;;;;;;;;;;;;1037688;28;2625;-57
2022/11/15 00:50:25;;;;;;;;;;;;;;;;;;1037995;28;3054;-58
2022/11/15 00:50:56;;;;;;;;;;;;;;;;;;1036953;28;2529;-59
2022/11/15 00:51:26;;;;;;;;;;;;;;;;;;1036506;28;2362;-59
2022/11/15 00:51:56;;;;;;;;;;;;;;;;;;1036772;28;2450;-58
2022/11/15 00:52:26;;;;;;;;;;;;;;;;;;1036830;28;2186;-58
2022/11/15 00:52:57;;;;;;;;;;;;;;;;;;1037735;28;1826;-58
2022/11/15 00:53:27;;;;;;;;;;;;;;;;;;1037984;28;1839;-57
2022/11/15 00:53:57;;;;;;;;;;;;;;;;;;1037760;28;1846;-58
2022/11/15 00:54:28;;;;;;;;;;;;;;;;;;1037781;28;2312;-59
2022/11/15 00:54:58;;;;;;;;;;;;;;;;;;1037276;28;2684;-59
2022/11/15 00:55:28;;;;;;;;;;;;;;;;;;1038481;28;1738;-59
2022/11/15 00:55:58;;;;;;;;;;;;;;;;;;1039354;28;1757;-58
2022/11/15 00:56:29;;;;;;;;;;;;;;;;;;1038937;28;1711;-58
2022/11/15 00:56:59;;;;;;;;;;;;;;;;;;1038473;28;2571;-59
2022/11/15 00:57:29;;;;;;;;;;;;;;;;;;1038578;28;2078;-57
2022/11/15 00:57:59;;;;;;;;;;;;;;;;;;1038628;28;2073;-59
2022/11/15 00:58:30;;;;;;;;;;;;;;;;;;1038222;28;2022;-57
2022/11/15 00:59:00;;;;;;;;;;;;;;;;;;1038923;28;2223;-60
2022/11/15 00:59:30;;;;;;;;;;;;;;;;;;1039332;28;2614;-59
2022/11/15 01:00:01;;;;;;;;;;;;;;;;;;1038370;28;2064;-58
2022/11/15 01:00:31;;;;;;;;;;;;;;;;;;1038578;28;2298;-56
2022/11/15 01:01:08;;;;;;;;;;;;;;;;;;1036494;28;2160;-58
2022/11/15 01:01:39;;;;;;;;;;;;;;;;;;1038784;28;2027;-59
2022/11/15 01:02:09;;;;;;;;;;;;;;;;;;1039049;28;1746;-58
2022/11/15 01:02:39;;;;;;;;;;;;;;;;;;1037718;28;2063;-58
2022/11/15 01:03:09;;;;;;;;;;;;;;;;;;1038972;28;1422;-56
2022/11/15 01:03:40;;;;;;;;;;;;;;;;;;1037640;28;1925;-58
2022/11/15 01:04:10;;;;;;;;;;;;;;;;;;1039342;28;1696;-58
2022/11/15 01:04:41;;;;;;;;;;;;;;;;;;1037016;28;2220;-55
2022/11/15 01:05:11;;;;;;;;;;;;;;;;;;1038895;28;2012;-57
2022/11/15 01:05:41;;;;;;;;;;;;;;;;;;1037822;28;2146;-57
2022/11/15 01:06:11;;;;;;;;;;;;;;;;;;1037906;28;1804;-60
2022/11/15 01:06:42;;;;;;;;;;;;;;;;;;1035438;28;2585;-59
2022/11/15 01:07:12;;;;;;;;;;;;;;;;;;1038105;28;2163;-59
2022/11/15 01:07:42;;;;;;;;;;;;;;;;;;1038264;28;1775;-61
2022/11/15 01:08:13;;;;;;;;;;;;;;;;;;1038657;28;1972;-59
2022/11/15 01:08:57;;;;;;;;;;;;;;;;;;1039155;28;2909;-57
2022/11/15 01:09:34;;;;;;;;;;;;;;;;;;1045178;28;2338;-59
2022/11/15 01:10:05;;;;;;;;;;;;;;;;;;1043076;28;2370;-55
2022/11/15 01:10:36;;;;;;;;;;;;;;;;;;1047345;28;1821;-56
2022/11/15 01:11:07;;;;;;;;;;;;;;;;;;1045093;28;2003;-58
2022/11/15 01:11:38;;;;;;;;;;;;;;;;;;1044158;28;2325;-59
2022/11/15 01:12:08;;;;;;;;;;;;;;;;;;1044906;28;2529;-58
2022/11/15 01:12:38;;;;;;;;;;;;;;;;;;1044986;28;2299;-58
2022/11/15 01:13:09;;;;;;;;;;;;;;;;;;1046500;28;2296;-57
2022/11/15 01:13:39;;;;;;;;;;;;;;;;;;1043936;28;2016;-57
2022/11/15 01:14:09;;;;;;;;;;;;;;;;;;1044102;28;2426;-58
2022/11/15 01:14:40;;;;;;;;;;;;;;;;;;1045352;28;2443;-57
2022/11/15 01:15:10;;;;;;;;;;;;;;;;;;1045307;28;2258;-57
2022/11/15 01:15:41;;;;;;;;;;;;;;;;;;1044259;28;2372;-57
2022/11/15 01:16:12;;;;;;;;;;;;;;;;;;1042044;28;2403;-56
2022/11/15 01:16:43;;;;;;;;;;;;;;;;;;1044210;28;2334;-59
2022/11/15 01:17:13;;;;;;;;;;;;;;;;;;1045393;28;1993;-58
2022/11/15 01:17:43;;;;;;;;;;;;;;;;;;1043019;28;1953;-57
2022/11/15 01:18:14;;;;;;;;;;;;;;;;;;1043236;28;2936;-57
2022/11/15 01:18:45;;;;;;;;;;;;;;;;;;1045580;28;2147;-57
2022/11/15 01:19:15;;;;;;;;;;;;;;;;;;1043950;28;1786;-56
2022/11/15 01:19:45;;;;;;;;;;;;;;;;;;1043869;28;2742;-58
2022/11/15 01:20:16;;;;;;;;;;;;;;;;;;1043734;28;2384;-59
2022/11/15 01:20:46;;;;;;;;;;;;;;;;;;1044194;28;2453;-59
2022/11/15 01:21:17;;;;;;;;;;;;;;;;;;1044188;28;3678;-59
2022/11/15 01:21:50;;;;;;;;;;;;;;;;;;1043295;28;3708;-59
2022/11/15 01:22:21;;;;;;;;;;;;;;;;;;1042284;28;2393;-56
2022/11/15 01:22:51;;;;;;;;;;;;;;;;;;1041602;28;2753;-58
2022/11/15 01:23:21;;;;;;;;;;;;;;;;;;1042014;28;2420;-58
2022/11/15 01:23:55;;;;;;;;;;;;;;;;;;1043877;28;2478;-57
2022/11/15 01:24:25;;;;;;;;;;;;;;;;;;1044301;28;2449;-58
2022/11/15 01:24:55;;;;;;;;;;;;;;;;;;1044681;28;2863;-58
2022/11/15 01:25:25;;;;;;;;;;;;;;;;;;1043246;28;2548;-57
2022/11/15 01:26:03;;;;;;;;;;;;;;;;;;1043568;28;2377;-58
2022/11/15 01:26:33;;;;;;;;;;;;;;;;;;1044574;28;2473;-56
2022/11/15 01:27:03;;;;;;;;;;;;;;;;;;1043860;28;2369;-58
2022/11/15 01:27:34;;;;;;;;;;;;;;;;;;1044862;28;2668;-59
2022/11/15 01:28:04;;;;;;;;;;;;;;;;;;1044582;28;1632;-59
2022/11/15 01:28:35;;;;;;;;;;;;;;;;;;1045600;28;2380;-59
2022/11/15 01:29:05;;;;;;;;;;;;;;;;;;1045111;28;2378;-56
2022/11/15 01:29:36;;;;;;;;;;;;;;;;;;1043920;28;2376;-57
2022/11/15 01:30:06;;;;;;;;;;;;;;;;;;1044193;28;2163;-59
2022/11/15 01:30:37;;;;;;;;;;;;;;;;;;1046454;28;1556;-59
2022/11/15 01:31:10;;;;;;;;;;;;;;;;;;1046207;28;2248;-57
2022/11/15 01:31:41;;;;;;;;;;;;;;;;;;1045733;28;2444;-59
2022/11/15 01:32:11;;;;;;;;;;;;;;;;;;1043744;28;2687;-58
2022/11/15 01:32:41;;;;;;;;;;;;;;;;;;1043360;28;2470;-59
2022/11/15 01:33:11;;;;;;;;;;;;;;;;;;1042586;28;2405;-58
2022/11/15 01:33:42;;;;;;;;;;;;;;;;;;1044001;28;2496;-59
2022/11/15 01:34:12;;;;;;;;;;;;;;;;;;1045088;28;2406;-56
2022/11/15 01:34:49;;;;;;;;;;;;;;;;;;1044075;28;2489;-55
2022/11/15 01:35:20;;;;;;;;;;;;;;;;;;1044787;28;2436;-56
2022/11/15 01:35:51;;;;;;;;;;;;;;;;;;1043984;28;2282;-57
2022/11/15 01:36:21;;;;;;;;;;;;;;;;;;1044639;28;2268;-59
2022/11/15 01:36:52;;;;;;;;;;;;;;;;;;1043061;28;2696;-57
2022/11/15 01:37:22;;;;;;;;;;;;;;;;;;1044031;28;1961;-57
2022/11/15 01:37:52;;;;;;;;;;;;;;;;;;1044521;28;2029;-59
2022/11/15 01:38:22;;;;;;;;;;;;;;;;;;1044197;28;2308;-58
2022/11/15 01:38:54;;;;;;;;;;;;;;;;;;1043397;28;2692;-58
2022/11/15 01:39:25;;;;;;;;;;;;;;;;;;1043748;28;2333;-58
2022/11/15 01:39:55;;;;;;;;;;;;;;;;;;1044992;28;2426;-57
2022/11/15 01:40:25;;;;;;;;;;;;;;;;;;1043874;28;2342;-56
2022/11/15 01:40:55;;;;;;;;;;;;;;;;;;1044200;28;2498;-58
2022/11/15 01:41:27;;;;;;;;;;;;;;;;;;1045632;28;2404;-56
2022/11/15 01:41:57;;;;;;;;;;;;;;;;;;1045777;28;1929;-57
2022/11/15 01:42:28;;;;;;;;;;;;;;;;;;1045035;28;2146;-58
2022/11/15 01:42:58;;;;;;;;;;;;;;;;;;1044184;28;2812;-61
2022/11/15 01:43:35;;;;;;;;;;;;;;;;;;1043993;28;2425;-55
2022/11/15 01:44:24;;;;;;;;;;;;;;;;;;1044733;28;2435;-59
2022/11/15 01:44:55;;;;;;;;;;;;;;;;;;1043177;28;1809;-59
2022/11/15 01:45:26;;;;;;;;;;;;;;;;;;1044568;28;2100;-56
2022/11/15 01:45:58;;;;;;;;;;;;;;;;;;1044723;28;2423;-57
2022/11/15 01:46:35;;;;;;;;;;;;;;;;;;1044678;28;2733;-58
2022/11/15 01:47:15;;;;;;;;;;;;;;;;;;1044497;28;2438;-58
2022/11/15 01:47:47;;;;;;;;;;;;;;;;;;1045660;28;2464;-56
2022/11/15 01:48:17;;;;;;;;;;;;;;;;;;1043507;28;2409;-58
2022/11/15 01:48:50;;;;;;;;;;;;;;;;;;1043953;28;2462;-58
2022/11/15 01:49:22;;;;;;;;;;;;;;;;;;1045121;28;2410;-58
2022/11/15 01:49:58;;;;;;;;;;;;;;;;;;1044307;28;2366;-58
2022/11/15 01:50:30;;;;;;;;;;;;;;;;;;1045011;28;2397;-56
2022/11/15 01:51:01;;;;;;;;;;;;;;;;;;1044732;28;2789;-59
2022/11/15 01:51:33;;;;;;;;;;;;;;;;;;1045478;28;1522;-58
2022/11/15 01:52:04;;;;;;;;;;;;;;;;;;1043972;28;2288;-57
2022/11/15 01:52:35;;;;;;;;;;;;;;;;;;1046650;28;1598;-59
2022/11/15 01:53:05;;;;;;;;;;;;;;;;;;1044201;28;2145;-59
2022/11/15 01:53:37;;;;;;;;;;;;;;;;;;1045561;28;2096;-55
2022/11/15 01:54:10;;;;;;;;;;;;;;;;;;1043785;28;2453;-57
2022/11/15 01:54:41;;;;;;;;;;;;;;;;;;1045246;28;2332;-58
2022/11/15 01:55:12;;;;;;;;;;;;;;;;;;1044616;28;3040;-59
2022/11/15 01:55:42;;;;;;;;;;;;;;;;;;1044980;28;2345;-56
2022/11/15 01:56:14;;;;;;;;;;;;;;;;;;1044124;28;2266;-59
2022/11/15 01:57:05;;;;;;;;;;;;;;;;;;1044780;28;2694;-58
2022/11/15 01:57:35;;;;;;;;;;;;;;;;;;1045518;28;2145;-58
2022/11/15 01:58:06;;;;;;;;;;;;;;;;;;1047683;28;1754;-59
2022/11/15 01:58:37;;;;;;;;;;;;;;;;;;1045255;28;2352;-58
2022/11/15 01:59:08;;;;;;;;;;;;;;;;;;1045229;28;2512;-57
2022/11/15 01:59:40;;;;;;;;;;;;;;;;;;1044562;28;2684;-57
2022/11/15 02:00:11;;;;;;;;;;;;;;;;;;1045266;28;2376;-57
2022/11/15 02:00:41;;;;;;;;;;;;;;;;;;1044128;28;2365;-57
2022/11/15 02:01:12;;;;;;;;;;;;;;;;;;1045657;28;2520;-55
2022/11/15 02:01:43;;;;;;;;;;;;;;;;;;1043939;28;2411;-58
2022/11/15 02:02:13;;;;;;;;;;;;;;;;;;1047197;28;2492;-56
2022/11/15 02:02:43;;;;;;;;;;;;;;;;;;1045536;28;2548;-58
2022/11/15 02:03:14;;;;;;;;;;;;;;;;;;1045753;28;2419;-55
2022/11/15 02:03:50;;;;;;;;;;;;;;;;;;1043854;28;2293;-58
2022/11/15 02:04:24;;;;;;;;;;;;;;;;;;1045993;28;1614;-54
2022/11/15 02:04:54;;;;;;;;;;;;;;;;;;1042968;28;2704;-58
2022/11/15 02:05:24;;;;;;;;;;;;;;;;;;1045255;28;3411;-57
2022/11/15 02:05:55;;;;;;;;;;;;;;;;;;1043232;28;2475;-59
2022/11/15 02:06:25;;;;;;;;;;;;;;;;;;1046263;28;2231;-59
2022/11/15 02:06:55;;;;;;;;;;;;;;;;;;1045634;28;2033;-58
2022/11/15 02:07:26;;;;;;;;;;;;;;;;;;1045721;28;2288;-58
2022/11/15 02:07:56;;;;;;;;;;;;;;;;;;1044121;28;1827;-59
2022/11/15 02:08:27;;;;;;;;;;;;;;;;;;1043718;28;2326;-59
2022/11/15 02:09:10;;;;;;;;;;;;;;;;;;1043661;28;2591;-56
2022/11/15 02:09:47;;;;;;;;;;;;;;;;;;1046095;28;2200;-57
2022/11/15 02:10:19;;;;;;;;;;;;;;;;;;1045480;28;1784;-58
2022/11/15 02:10:49;;;;;;;;;;;;;;;;;;1046256;28;1971;-59
2022/11/15 02:11:20;;;;;;;;;;;;;;;;;;1043650;28;2451;-59
2022/11/15 02:11:51;;;;;;;;;;;;;;;;;;1044554;28;2699;-56
2022/11/15 02:12:21;;;;;;;;;;;;;;;;;;1044779;28;2050;-57
2022/11/15 02:12:52;;;;;;;;;;;;;;;;;;1046005;28;2016;-57
2022/11/15 02:13:22;;;;;;;;;;;;;;;;;;1045063;28;3010;-58
2022/11/15 02:13:53;;;;;;;;;;;;;;;;;;1043446;28;2062;-58
2022/11/15 02:14:25;;;;;;;;;;;;;;;;;;1043127;28;2243;-57
2022/11/15 02:14:56;;;;;;;;;;;;;;;;;;1045706;28;2458;-57
2022/11/15 02:15:30;;;;;;;;;;;;;;;;;;1045012;28;2097;-57
2022/11/15 02:16:12;;;;;;;;;;;;;;;;;;1046579;28;2090;-59
2022/11/15 02:16:43;;;;;;;;;;;;;;;;;;1043740;28;2445;-57
2022/11/15 02:17:13;;;;;;;;;;;;;;;;;;1044973;28;2285;-58
2022/11/15 02:17:43;;;;;;;;;;;;;;;;;;1038150;28;2722;-58
2022/11/15 02:18:13;;;;;;;;;;;;;;;;;;1040509;28;3056;-57
2022/11/15 02:18:57;;;;;;;;;;;;;;;;;;1039441;28;2401;-59
2022/11/15 02:19:27;;;;;;;;;;;;;;;;;;1042201;28;2497;-55
2022/11/15 02:20:30;;;;;;;;;;;;;;;;;;1045591;28;2275;-57
2022/11/15 02:21:14;;;;;;;;;;;;;;;;;;1033838;28;1671;-58
2022/11/15 02:22:10;;;;;;;;;;;;;;;;;;1030549;28;2470;-57
2022/11/15 02:22:43;;;;;;;;;;;;;;;;;;1023927;28;2515;-58
2022/11/15 02:23:32;;;;;;;;;;;;;;;;;;1028177;28;3013;-55
2022/11/15 02:24:24;;;;;;;;;;;;;;;;;;1047422;28;2696;-58
2022/11/15 02:25:14;;;;;;;;;;;;;;;;;;1046030;28;2262;-57
2022/11/15 02:25:53;;;;;;;;;;;;;;;;;;1045600;28;1874;-55
2022/11/15 02:26:37;;;;;;;;;;;;;;;;;;1044915;28;2421;-59
2022/11/15 02:27:30;;;;;;;;;;;;;;;;;;1046018;28;2425;-58
2022/11/15 02:28:09;;;;;;;;;;;;;;;;;;1045605;28;2462;-55
2022/11/15 02:29:00;;;;;;;;;;;;;;;;;;1042400;28;1841;-57
2022/11/15 02:29:37;;;;;;;;;;;;;;;;;;1034936;28;2418;-55
2022/11/15 02:30:26;;;;;;;;;;;;;;;;;;1044368;28;2059;-58
2022/11/15 02:30:56;;;;;;;;;;;;;;;;;;1044193;28;1977;-57
2022/11/15 02:31:33;;;;;;;;;;;;;;;;;;1046642;28;2127;-57
2022/11/15 02:32:09;;;;;;;;;;;;;;;;;;1045516;28;2052;-59
2022/11/15 02:32:57;;;;;;;;;;;;;;;;;;1044270;28;2564;-57
2022/11/15 02:33:27;;;;;;;;;;;;;;;;;;1046519;28;2677;-59
2022/11/15 02:34:17;;;;;;;;;;;;;;;;;;1042579;28;2031;-59
2022/11/15 02:34:57;;;;;;;;;;;;;;;;;;1044913;28;2312;-57
2022/11/15 02:35:46;;;;;;;;;;;;;;;;;;1043513;28;2816;-58
2022/11/15 02:36:35;;;;;;;;;;;;;;;;;;1042109;28;1776;-59
2022/11/15 02:37:11;;;;;;;;;;;;;;;;;;1043931;28;2281;-58
2022/11/15 02:37:41;;;;;;;;;;;;;;;;;;1044183;28;2665;-60
2022/11/15 02:38:30;;;;;;;;;;;;;;;;;;1043656;28;2045;-56
2022/11/15 02:39:10;;;;;;;;;;;;;;;;;;1046218;28;2277;-56
2022/11/15 02:39:52;;;;;;;;;;;;;;;;;;1044530;28;2447;-58
2022/11/15 02:40:25;;;;;;;;;;;;;;;;;;1043505;28;2699;-57
2022/11/15 02:41:01;;;;;;;;;;;;;;;;;;1043033;28;1690;-58
2022/11/15 02:41:39;;;;;;;;;;;;;;;;;;1042701;28;2464;-59
2022/11/15 02:43:56;;;;;;;;;;;;;;;;;;1044073;28;2419;-58
2022/11/15 02:44:05;;;;;;;;;;;;;;;;;;1046456;28;2377;-59
2022/11/15 02:44:41;;;;;;;;;;;;;;;;;;1045070;28;2004;-55
2022/11/15 02:45:16;;;;;;;;;;;;;;;;;;1042895;28;1751;-59
2022/11/15 02:45:49;;;;;;;;;;;;;;;;;;1045028;28;2376;-58
2022/11/15 02:47:29;;;;;;;;;;;;;;;;;;1043929;28;1913;-58
2022/11/15 02:48:01;;;;;;;;;;;;;;;;;;1042134;28;1917;-54
2022/11/15 02:48:32;;;;;;;;;;;;;;;;;;1043721;28;2013;-58
2022/11/15 02:49:02;;;;;;;;;;;;;;;;;;1044317;28;2444;-57
2022/11/15 02:49:34;;;;;;;;;;;;;;;;;;1044338;28;2306;-57
2022/11/15 02:50:09;;;;;;;;;;;;;;;;;;1042834;28;1938;-58
2022/11/15 02:50:39;;;;;;;;;;;;;;;;;;1042669;28;1961;-59
2022/11/15 02:51:09;;;;;;;;;;;;;;;;;;1044504;28;1910;-58
2022/11/15 02:51:40;;;;;;;;;;;;;;;;;;1044921;28;2049;-59
2022/11/15 02:52:14;;;;;;;;;;;;;;;;;;1043227;28;1977;-59
2022/11/15 02:52:45;;;;;;;;;;;;;;;;;;1042740;28;2341;-58
2022/11/15 02:53:15;;;;;;;;;;;;;;;;;;1044024;28;1710;-59
2022/11/15 02:53:45;;;;;;;;;;;;;;;;;;1042691;28;1709;-57
2022/11/15 02:54:23;;;;;;;;;;;;;;;;;;1042717;28;1675;-58
2022/11/15 02:54:55;;;;;;;;;;;;;;;;;;1042431;28;2459;-57
2022/11/15 02:55:29;;;;;;;;;;;;;;;;;;1043793;28;2622;-59
2022/11/15 02:55:59;;;;;;;;;;;;;;;;;;1042979;28;2537;-58
2022/11/15 02:56:30;;;;;;;;;;;;;;;;;;1047205;28;1864;-57
2022/11/15 02:57:11;;;;;;;;;;;;;;;;;;1043373;28;2495;-59
2022/11/15 02:57:51;;;;;;;;;;;;;;;;;;1045303;28;2432;-57
2022/11/15 02:58:30;;;;;;;;;;;;;;;;;;1043414;28;2625;-57
2022/11/15 02:59:13;;;;;;;;;;;;;;;;;;1042943;28;2335;-56
2022/11/15 02:59:52;;;;;;;;;;;;;;;;;;1046676;28;2345;-59
2022/11/15 03:00:22;;;;;;;;;;;;;;;;;;1042407;28;1976;-59
2022/11/15 03:00:58;;;;;;;;;;;;;;;;;;1047103;28;1342;-55
2022/11/15 03:01:41;;;;;;;;;;;;;;;;;;1045822;28;2172;-57
2022/11/15 03:02:18;;;;;;;;;;;;;;;;;;1042795;28;1956;-58
2022/11/15 03:03:03;;;;;;;;;;;;;;;;;;1042547;28;1748;-55
2022/11/15 03:03:33;;;;;;;;;;;;;;;;;;1041933;28;1888;-56
2022/11/15 03:04:11;;;;;;;;;;;;;;;;;;1043412;28;1926;-57
2022/11/15 03:05:05;;;;;;;;;;;;;;;;;;1043421;28;1728;-58
2022/11/15 03:05:39;;;;;;;;;;;;;;;;;;1033726;28;1773;-57
2022/11/15 03:06:22;;;;;;;;;;;;;;;;;;1044054;28;2202;-58
2022/11/15 03:06:52;;;;;;;;;;;;;;;;;;1043481;28;2410;-58
2022/11/15 03:07:32;;;;;;;;;;;;;;;;;;1043480;28;2458;-56
2022/11/15 03:08:02;;;;;;;;;;;;;;;;;;1041690;28;2033;-58
2022/11/15 03:08:37;;;;;;;;;;;;;;;;;;1044956;28;2295;-58
2022/11/15 03:09:40;;;;;;;;;;;;;;;;;;1042758;28;2005;-58
2022/11/15 03:10:23;;;;;;;;;;;;;;;;;;1042393;28;2276;-58
2022/11/15 03:10:53;;;;;;;;;;;;;;;;;;1043764;28;2396;-58
2022/11/15 03:11:24;;;;;;;;;;;;;;;;;;1043217;28;1839;-59
2022/11/15 03:12:02;;;;;;;;;;;;;;;;;;1044148;28;2055;-58
2022/11/15 03:12:43;;;;;;;;;;;;;;;;;;1045168;28;2795;-59
2022/11/15 03:13:13;;;;;;;;;;;;;;;;;;1042049;28;1688;-56
2022/11/15 03:14:02;;;;;;;;;;;;;;;;;;1044434;28;2178;-58
2022/11/15 03:14:37;;;;;;;;;;;;;;;;;;1045352;28;2367;-58
2022/11/15 03:15:26;;;;;;;;;;;;;;;;;;1045834;28;2123;-56
2022/11/15 03:16:02;;;;;;;;;;;;;;;;;;1044306;28;1691;-58
2022/11/15 03:16:45;;;;;;;;;;;;;;;;;;1044770;28;2372;-59
2022/11/15 03:17:27;;;;;;;;;;;;;;;;;;1042581;28;2308;-56
2022/11/15 03:18:00;;;;;;;;;;;;;;;;;;1043886;28;1824;-58
2022/11/15 03:18:36;;;;;;;;;;;;;;;;;;1043745;28;2084;-56
2022/11/15 03:19:13;;;;;;;;;;;;;;;;;;1041031;28;2590;-58
2022/11/15 03:19:48;;;;;;;;;;;;;;;;;;1041502;28;1987;-58
2022/11/15 03:20:18;;;;;;;;;;;;;;;;;;1044350;28;2017;-59
2022/11/15 03:20:50;;;;;;;;;;;;;;;;;;1044757;28;2414;-57
2022/11/15 03:21:21;;;;;;;;;;;;;;;;;;1044776;28;3130;-57
2022/11/15 03:21:52;;;;;;;;;;;;;;;;;;1043356;28;2470;-58
2022/11/15 03:22:24;;;;;;;;;;;;;;;;;;1042922;28;2964;-57
2022/11/15 03:22:56;;;;;;;;;;;;;;;;;;1043616;28;2440;-60
2022/11/15 03:23:28;;;;;;;;;;;;;;;;;;1042964;28;2626;-59
2022/11/15 03:24:01;;;;;;;;;;;;;;;;;;1043280;28;2375;-59
2022/11/15 03:24:39;;;;;;;;;;;;;;;;;;1044837;28;2808;-58
2022/11/15 03:25:13;;;;;;;;;;;;;;;;;;1042967;28;2559;-56
2022/11/15 03:25:46;;;;;;;;;;;;;;;;;;1044877;28;1977;-56
2022/11/15 03:26:17;;;;;;;;;;;;;;;;;;1045740;28;1694;-56
2022/11/15 03:26:48;;;;;;;;;;;;;;;;;;1044426;28;2541;-58
2022/11/15 03:27:21;;;;;;;;;;;;;;;;;;1042514;28;2960;-57
2022/11/15 03:27:54;;;;;;;;;;;;;;;;;;1042768;28;2358;-58
2022/11/15 03:28:32;;;;;;;;;;;;;;;;;;1042610;28;2071;-58
2022/11/15 03:29:14;;;;;;;;;;;;;;;;;;1043609;28;2036;-59
2022/11/15 03:29:46;;;;;;;;;;;;;;;;;;1042417;28;1962;-59
2022/11/15 03:30:17;;;;;;;;;;;;;;;;;;1043566;28;2377;-58
2022/11/15 03:30:49;;;;;;;;;;;;;;;;;;1044415;28;2055;-56
2022/11/15 03:32:16;;;;;;;;;;;;;;;;;;1043913;28;2367;-55
2022/11/15 03:32:57;;;;;;;;;;;;;;;;;;1043518;28;2176;-58
2022/11/15 03:33:27;;;;;;;;;;;;;;;;;;1043651;28;2038;-57
2022/11/15 03:33:59;;;;;;;;;;;;;;;;;;1041301;28;2389;-58
2022/11/15 03:34:30;;;;;;;;;;;;;;;;;;1039905;28;2049;-56
2022/11/15 03:35:04;;;;;;;;;;;;;;;;;;1038921;28;2356;-57
2022/11/15 03:35:40;;;;;;;;;;;;;;;;;;1042557;28;2933;-58
2022/11/15 03:36:10;;;;;;;;;;;;;;;;;;1045272;28;3454;-58
2022/11/15 03:36:41;;;;;;;;;;;;;;;;;;1042296;28;2366;-58
2022/11/15 03:37:13;;;;;;;;;;;;;;;;;;1044325;28;1809;-57
2022/11/15 03:37:46;;;;;;;;;;;;;;;;;;1045356;28;2694;-59
2022/11/15 03:38:24;;;;;;;;;;;;;;;;;;1046096;28;2032;-56
2022/11/15 03:38:56;;;;;;;;;;;;;;;;;;1045511;28;2401;-57
2022/11/15 03:39:27;;;;;;;;;;;;;;;;;;1044289;28;2912;-59
2022/11/15 03:39:58;;;;;;;;;;;;;;;;;;1042957;28;2540;-59
2022/11/15 03:40:37;;;;;;;;;;;;;;;;;;1045157;28;2420;-59
2022/11/15 03:41:11;;;;;;;;;;;;;;;;;;1042253;28;2419;-57
2022/11/15 03:41:56;;;;;;;;;;;;;;;;;;1042473;28;2746;-58
2022/11/15 03:42:30;;;;;;;;;;;;;;;;;;1043078;28;2335;-57
2022/11/15 03:43:05;;;;;;;;;;;;;;;;;;1043239;28;2680;-57
2022/11/15 03:43:39;;;;;;;;;;;;;;;;;;1043935;28;2327;-57
2022/11/15 03:44:13;;;;;;;;;;;;;;;;;;1043671;28;2374;-59
2022/11/15 03:44:44;;;;;;;;;;;;;;;;;;1045095;28;2688;-58
2022/11/15 03:45:16;;;;;;;;;;;;;;;;;;1041867;28;2153;-56
2022/11/15 03:45:50;;;;;;;;;;;;;;;;;;1041790;28;2097;-55
2022/11/15 03:46:24;;;;;;;;;;;;;;;;;;1041280;28;2043;-58
2022/11/15 03:47:00;;;;;;;;;;;;;;;;;;1044236;28;2524;-58
2022/11/15 03:47:43;;;;;;;;;;;;;;;;;;1043461;28;2140;-59
2022/11/15 03:48:17;;;;;;;;;;;;;;;;;;1043758;28;2143;-55
2022/11/15 03:48:49;;;;;;;;;;;;;;;;;;1044629;28;2661;-57
2022/11/15 03:49:24;;;;;;;;;;;;;;;;;;1044641;28;2781;-58
2022/11/15 03:50:00;;;;;;;;;;;;;;;;;;1044307;28;2418;-58
2022/11/15 03:50:31;;;;;;;;;;;;;;;;;;1045376;28;2926;-58
2022/11/15 03:51:02;;;;;;;;;;;;;;;;;;1043036;28;2926;-58
2022/11/15 03:51:33;;;;;;;;;;;;;;;;;;1044018;28;2493;-56
2022/11/15 03:52:03;;;;;;;;;;;;;;;;;;1043602;28;2461;-57
2022/11/15 03:52:34;;;;;;;;;;;;;;;;;;1044606;28;2669;-57
2022/11/15 03:53:05;;;;;;;;;;;;;;;;;;1044528;28;2611;-59
2022/11/15 03:53:35;;;;;;;;;;;;;;;;;;1044159;28;2506;-58
2022/11/15 03:54:05;;;;;;;;;;;;;;;;;;1043356;28;2441;-59
2022/11/15 03:54:36;;;;;;;;;;;;;;;;;;1042773;28;2816;-57